Time;durP1;ratioP1;P1;durP2;ratioP2;P2;SDS_P1;SDS_P2;PMS_P1;PMS_P2;Temp;Humidity;BMP_temperature;BMP_pressure;BME280_temperature;BME280_humidity;BME280_pressure;Samples;Min_cycle;Max_cycle;Signal;HPM_P1;HPM_P2
2023/01/24 00:01:16;;;;;;;23.20;12.37;;;-0.30;96.80;;;;;;5032790;28;20029;-78
2023/01/24 00:03:43;;;;;;;23.40;13.82;;;-0.20;96.90;;;;;;5019922;28;20013;-78
2023/01/24 00:06:09;;;;;;;24.45;13.85;;;-0.20;96.90;;;;;;5037981;28;20108;-77
2023/01/24 00:08:34;;;;;;;23.42;13.55;;;-0.20;96.80;;;;;;5033773;28;20171;-77
2023/01/24 00:11:05;;;;;;;25.02;14.23;;;-0.20;97.00;;;;;;5051285;28;20021;-77
2023/01/24 00:13:32;;;;;;;24.50;13.05;;;-0.20;96.80;;;;;;5051389;28;20065;-79
2023/01/24 00:16:09;;;;;;;18.85;11.52;;;-0.20;96.80;;;;;;5033641;28;20881;-77
2023/01/24 00:18:35;;;;;;;21.33;12.70;;;-0.20;96.80;;;;;;5033383;28;20032;-79
2023/01/24 00:21:04;;;;;;;20.27;12.00;;;-0.20;96.70;;;;;;5051408;28;20029;-79
2023/01/24 00:23:30;;;;;;;28.90;15.00;;;-0.30;96.70;;;;;;5053998;28;20025;-78
2023/01/24 00:25:56;;;;;;;23.38;11.43;;;-0.20;96.80;;;;;;5051350;28;20025;-79
2023/01/24 00:28:22;;;;;;;21.90;11.35;;;-0.20;96.70;;;;;;5047908;28;20033;-78
2023/01/24 00:30:48;;;;;;;21.27;11.70;;;-0.20;96.70;;;;;;5055061;28;20502;-78
2023/01/24 00:33:13;;;;;;;25.60;13.75;;;-0.20;96.70;;;;;;5055206;28;20096;-76
2023/01/24 00:35:39;;;;;;;19.42;12.32;;;-0.20;96.60;;;;;;5048684;28;20395;-77
2023/01/24 00:38:05;;;;;;;23.02;12.95;;;-0.20;96.70;;;;;;5031006;28;20025;-77
2023/01/24 00:40:31;;;;;;;24.08;13.48;;;-0.20;96.70;;;;;;5033791;28;20025;-77
2023/01/24 00:42:57;;;;;;;22.38;11.80;;;-0.20;96.60;;;;;;5049410;28;20021;-76
2023/01/24 00:45:22;;;;;;;21.75;12.68;;;-0.20;96.60;;;;;;5054892;28;20029;-77
2023/01/24 00:47:48;;;;;;;20.67;12.30;;;-0.30;96.60;;;;;;5054842;28;20063;-79
2023/01/24 00:50:14;;;;;;;18.38;11.75;;;-0.40;96.60;;;;;;5049553;28;20033;-81
2023/01/24 00:52:40;;;;;;;23.52;13.13;;;-0.40;96.80;;;;;;5050140;28;20017;-82
2023/01/24 00:55:06;;;;;;;20.60;11.93;;;-0.40;96.90;;;;;;5054603;28;20020;-79
2023/01/24 00:57:32;;;;;;;19.85;11.88;;;-0.40;96.90;;;;;;5043895;28;20147;-78
2023/01/24 00:59:57;;;;;;;19.50;11.60;;;-0.40;96.80;;;;;;5054222;28;20496;-78
2023/01/24 01:02:23;;;;;;;21.15;11.95;;;-0.50;96.90;;;;;;5054199;28;20036;-77
2023/01/24 01:04:49;;;;;;;22.52;12.45;;;-0.40;96.90;;;;;;5054237;28;20138;-79
2023/01/24 01:07:15;;;;;;;25.70;12.10;;;-0.50;97.30;;;;;;5054356;28;20063;-78
2023/01/24 01:09:41;;;;;;;15.52;11.20;;;-0.50;97.10;;;;;;5036091;28;20025;-77
2023/01/24 01:12:06;;;;;;;20.40;11.45;;;-0.50;97.10;;;;;;5054278;28;20032;-77
2023/01/24 01:14:33;;;;;;;19.52;12.07;;;-0.50;97.10;;;;;;5054541;28;20104;-79
2023/01/24 01:16:58;;;;;;;20.02;10.63;;;-0.50;97.20;;;;;;5054031;28;20036;-80
2023/01/24 01:19:24;;;;;;;18.33;11.27;;;-0.50;97.10;;;;;;5054135;28;20033;-78
2023/01/24 01:21:50;;;;;;;22.65;12.65;;;-0.50;97.10;;;;;;5054272;28;20102;-77
2023/01/24 01:24:16;;;;;;;18.10;10.30;;;-0.50;97.20;;;;;;5052626;28;20471;-78
2023/01/24 01:26:42;;;;;;;21.75;11.38;;;-0.50;97.20;;;;;;5042911;28;20040;-78
2023/01/24 01:29:07;;;;;;;16.85;10.15;;;-0.50;97.30;;;;;;5052514;28;20487;-79
2023/01/24 01:31:33;;;;;;;20.70;12.57;;;-0.50;97.30;;;;;;5035994;28;20056;-79
2023/01/24 01:33:59;;;;;;;20.05;11.63;;;-0.50;97.30;;;;;;5052911;28;20381;-79
2023/01/24 01:36:25;;;;;;;20.98;11.80;;;-0.50;97.30;;;;;;5053914;28;20029;-78
2023/01/24 01:38:50;;;;;;;20.70;12.40;;;-0.50;97.30;;;;;;5053867;28;20476;-77
2023/01/24 01:41:16;;;;;;;20.42;10.88;;;-0.40;97.30;;;;;;5053884;28;20373;-79
2023/01/24 01:44:37;;;;;;;16.40;10.27;;;-0.40;97.30;;;;;;5036427;28;20031;-78
2023/01/24 01:46:37;;;;;;;18.83;9.82;;;-0.40;97.30;;;;;;5053559;28;20031;-79
2023/01/24 01:49:05;;;;;;;16.98;10.00;;;-0.30;97.30;;;;;;5054027;28;20021;-77
2023/01/24 01:51:49;;;;;;;20.55;10.18;;;-0.30;97.20;;;;;;5053951;28;20380;-78
2023/01/24 01:54:25;;;;;;;21.83;10.70;;;-0.30;97.20;;;;;;5035397;28;20068;-78
2023/01/24 01:57:02;;;;;;;20.88;10.45;;;-0.30;97.20;;;;;;5053272;28;20079;-78
2023/01/24 01:59:37;;;;;;;17.63;10.15;;;-0.30;97.00;;;;;;5053247;28;20123;-79
2023/01/24 02:02:06;;;;;;;22.08;12.55;;;-0.30;97.00;;;;;;5053268;28;20028;-80
2023/01/24 02:04:35;;;;;;;19.05;10.88;;;-0.30;97.00;;;;;;5053315;28;20104;-78
2023/01/24 02:07:30;;;;;;;16.30;10.73;;;-0.30;97.10;;;;;;5053553;28;20024;-76
2023/01/24 02:09:58;;;;;;;17.33;9.65;;;-0.20;97.10;;;;;;5053233;28;20021;-77
2023/01/24 02:12:38;;;;;;;23.33;11.15;;;-0.30;97.00;;;;;;5053255;28;20032;-77
2023/01/24 02:16:10;;;;;;;19.13;11.07;;;-0.30;97.00;;;;;;5035062;28;20029;-80
2023/01/24 02:18:06;;;;;;;18.10;10.27;;;-0.30;97.00;;;;;;5038835;28;20047;-77
2023/01/24 02:20:48;;;;;;;;;;;-0.30;96.90;;;;;;5053624;28;20029;-77
2023/01/24 02:23:38;;;;;;;18.27;10.15;;;-0.30;96.90;;;;;;5052599;28;19905;-77
2023/01/24 02:26:10;;;;;;;19.85;11.00;;;-0.30;96.90;;;;;;5047987;28;20125;-78
2023/01/24 02:28:37;;;;;;;27.20;11.07;;;-0.30;96.90;;;;;;5052329;28;20060;-77
2023/01/24 02:31:04;;;;;;;22.83;11.82;;;-0.30;97.00;;;;;;5035021;28;20020;-78
2023/01/24 02:33:32;;;;;;;25.77;10.57;;;-0.30;97.10;;;;;;5049303;28;20056;-77
2023/01/24 02:36:20;;;;;;;16.45;9.88;;;-0.30;97.00;;;;;;5052744;28;20021;-78
2023/01/24 02:39:00;;;;;;;23.27;10.63;;;-0.30;97.00;;;;;;5049832;28;20051;-77
2023/01/24 02:41:31;;;;;;;16.98;9.10;;;-0.30;97.10;;;;;;5052603;28;20017;-77
2023/01/24 02:44:04;;;;;;;16.98;10.45;;;-0.30;97.10;;;;;;5052470;28;20031;-78
2023/01/24 02:46:30;;;;;;;20.05;10.88;;;-0.30;97.10;;;;;;5052194;28;20056;-78
2023/01/24 02:48:57;;;;;;;19.17;11.25;;;-0.30;97.10;;;;;;5052482;28;20033;-79
2023/01/24 02:54:07;;;;;;;22.80;10.27;;;-0.30;97.10;;;;;;5052681;28;20325;-76
2023/01/24 02:59:17;;;;;;;16.52;10.05;;;-0.30;97.10;;;;;;5052079;28;20542;-78
2023/01/24 03:01:42;;;;;;;13.70;8.48;;;-0.30;97.20;;;;;;5047401;28;20029;-77
2023/01/24 03:04:10;;;;;;;15.25;9.45;;;-0.30;97.10;;;;;;5044251;28;20040;-77
2023/01/24 03:06:36;;;;;;;;;;;-0.30;97.10;;;;;;5034513;28;20025;-77
2023/01/24 03:09:18;;;;;;;17.35;8.77;;;-0.30;97.10;;;;;;5052022;28;19912;-78
2023/01/24 03:11:47;;;;;;;16.92;9.93;;;-0.30;97.10;;;;;;5051979;28;20028;-77
2023/01/24 03:36:07;;;;;;;15.35;9.60;;;-0.50;97.40;;;;;;5051806;28;20039;-80
2023/01/24 03:41:17;;;;;;;13.80;8.43;;;-0.50;97.50;;;;;;5051576;28;20036;-78
2023/01/24 03:43:43;;;;;;;15.43;8.95;;;-0.50;97.50;;;;;;5051230;28;20013;-76
2023/01/24 03:46:09;;;;;;;18.75;9.40;;;-0.50;97.50;;;;;;5033365;28;20031;-76
2023/01/24 03:48:36;;;;;;;15.98;9.05;;;-0.50;97.50;;;;;;5051088;28;20159;-77
2023/01/24 03:53:47;;;;;;;17.13;9.07;;;-0.40;97.50;;;;;;5051496;28;20121;-79
2023/01/24 03:56:13;;;;;;;19.58;9.32;;;-0.40;97.50;;;;;;5050667;28;20040;-77
2023/01/24 03:58:39;;;;;;;13.60;9.45;;;-0.40;97.50;;;;;;5050798;28;20053;-77
2023/01/24 04:01:05;;;;;;;14.57;9.80;;;-0.40;97.60;;;;;;5051201;28;20021;-79
2023/01/24 04:03:32;;;;;;;16.98;9.05;;;-0.40;97.60;;;;;;5051265;28;20028;-77
2023/01/24 04:05:58;;;;;;;17.90;8.80;;;-0.40;97.60;;;;;;5049347;28;20040;-78
2023/01/24 04:08:24;;;;;;;15.32;9.40;;;-0.40;97.50;;;;;;5051131;28;20896;-78
2023/01/24 04:10:50;;;;;;;13.25;8.85;;;-0.50;97.50;;;;;;5053154;28;20025;-79
2023/01/24 04:13:16;;;;;;;16.48;8.77;;;-0.50;97.50;;;;;;5051356;28;20023;-79
2023/01/24 04:15:42;;;;;;;15.43;9.45;;;-0.60;97.50;;;;;;5049690;28;20021;-78
2023/01/24 04:18:08;;;;;;;17.35;8.73;;;-0.60;97.60;;;;;;5051240;28;20025;-79
2023/01/24 04:20:36;;;;;;;14.02;8.32;;;-0.70;97.70;;;;;;5045980;28;20397;-78
2023/01/24 04:23:06;;;;;;;18.02;8.57;;;-0.80;97.80;;;;;;5048613;28;20025;-78
2023/01/24 04:25:33;;;;;;;14.65;9.32;;;-0.90;97.90;;;;;;5042263;28;20071;-77
2023/01/24 04:28:01;;;;;;;18.75;8.65;;;-0.90;98.00;;;;;;5033422;28;20061;-80
2023/01/24 04:30:27;;;;;;;20.00;8.18;;;-1.00;98.10;;;;;;5051206;28;20092;-79
2023/01/24 04:32:53;;;;;;;16.25;8.45;;;-1.00;98.20;;;;;;5051085;28;20124;-78
2023/01/24 04:35:22;;;;;;;16.85;8.82;;;-1.00;98.30;;;;;;5044828;28;20025;-79
2023/01/24 04:37:48;;;;;;;17.52;9.82;;;-1.00;98.40;;;;;;5050968;28;20341;-78
2023/01/24 04:40:15;;;;;;;16.48;9.20;;;-1.00;98.40;;;;;;5051437;28;20559;-79
2023/01/24 04:42:42;;;;;;;13.70;8.55;;;-1.10;98.40;;;;;;5051147;28;20104;-78
2023/01/24 04:45:08;;;;;;;15.15;8.35;;;-1.10;98.60;;;;;;5033192;28;20025;-79
2023/01/24 04:47:34;;;;;;;14.52;8.23;;;-1.10;98.60;;;;;;5050850;28;20120;-78
2023/01/24 04:50:00;;;;;;;16.77;9.20;;;-1.10;99.00;;;;;;5042859;28;20096;-78
2023/01/24 04:52:26;;;;;;;16.02;9.07;;;-1.10;98.70;;;;;;5032896;28;20024;-77
2023/01/24 04:54:52;;;;;;;16.90;9.00;;;-1.10;98.70;;;;;;5050846;28;20100;-78
2023/01/24 04:57:18;;;;;;;13.10;8.25;;;-1.20;98.70;;;;;;5049925;28;20091;-79
2023/01/24 04:59:44;;;;;;;17.35;8.75;;;-1.20;98.80;;;;;;5050749;28;20881;-78
2023/01/24 05:02:10;;;;;;;18.73;9.07;;;-1.20;98.80;;;;;;5051044;28;20107;-78
2023/01/24 05:04:35;;;;;;;15.68;8.93;;;-1.30;98.90;;;;;;5050555;28;20028;-79
2023/01/24 05:07:04;;;;;;;16.15;8.73;;;-1.30;99.00;;;;;;5048047;28;20482;-78
2023/01/24 05:09:30;;;;;;;18.08;8.68;;;-1.30;99.10;;;;;;5051112;28;20537;-77
2023/01/24 05:11:59;;;;;;;16.88;8.98;;;-1.20;99.20;;;;;;5036482;28;20105;-77
2023/01/24 05:14:24;;;;;;;15.13;9.18;;;-1.20;99.30;;;;;;5054222;28;20033;-77
2023/01/24 05:16:50;;;;;;;15.32;7.85;;;-1.10;99.30;;;;;;5036355;28;20028;-78
2023/01/24 05:19:16;;;;;;;16.20;10.30;;;-1.00;99.20;;;;;;5048965;28;20021;-79
2023/01/24 05:21:42;;;;;;;15.95;8.20;;;-0.90;99.20;;;;;;5054195;28;20025;-77
2023/01/24 05:24:08;;;;;;;16.13;9.15;;;-0.90;99.10;;;;;;5054128;28;20017;-79
2023/01/24 05:26:33;;;;;;;16.08;8.38;;;-0.90;99.00;;;;;;5031071;28;20083;-78
2023/01/24 05:28:59;;;;;;;14.95;8.05;;;-0.80;99.00;;;;;;5054764;28;20037;-80
2023/01/24 05:31:25;;;;;;;15.05;8.75;;;-0.80;99.00;;;;;;5054418;28;20029;-78
2023/01/24 05:33:51;;;;;;;13.88;9.20;;;-0.80;98.90;;;;;;5053843;28;20021;-79
2023/01/24 05:36:21;;;;;;;21.05;9.48;;;-0.80;98.90;;;;;;5053888;28;20166;-78
2023/01/24 05:38:47;;;;;;;16.45;9.50;;;-0.70;98.90;;;;;;5043277;28;20094;-76
2023/01/24 05:41:16;;;;;;;13.38;8.30;;;-0.80;98.80;;;;;;5053928;28;20120;-76
2023/01/24 05:43:43;;;;;;;17.80;9.38;;;-0.70;98.80;;;;;;5053637;28;20104;-78
2023/01/24 05:46:20;;;;;;;16.08;8.20;;;-0.70;98.80;;;;;;5053553;28;20026;-79
2023/01/24 05:48:47;;;;;;;20.48;9.15;;;-0.70;98.70;;;;;;5053789;28;20033;-80
2023/01/24 05:51:15;;;;;;;18.50;9.40;;;-0.70;98.70;;;;;;5035755;28;20017;-80
2023/01/24 05:53:43;;;;;;;15.15;7.80;;;-0.70;98.60;;;;;;5053530;28;20025;-78
2023/01/24 05:56:15;;;;;;;10.43;8.10;;;-0.70;98.60;;;;;;5052838;28;20022;-79
2023/01/24 05:58:42;;;;;;;15.80;8.52;;;-0.70;98.70;;;;;;5053457;28;20063;-81
2023/01/24 06:01:19;;;;;;;18.08;8.23;;;-0.70;98.70;;;;;;5054053;28;20055;-78
2023/01/24 06:03:47;;;;;;;13.93;7.45;;;-0.70;98.70;;;;;;5053990;28;20033;-78
2023/01/24 06:06:15;;;;;;;15.93;9.57;;;-0.70;98.60;;;;;;5053244;28;20135;-79
2023/01/24 06:08:42;;;;;;;16.92;8.38;;;-0.70;98.60;;;;;;5052845;28;20571;-80
2023/01/24 06:11:15;;;;;;;15.00;9.05;;;-0.70;98.60;;;;;;5035495;28;20025;-80
2023/01/24 06:13:42;;;;;;;19.05;8.85;;;-0.70;98.70;;;;;;5053448;28;20091;-79
2023/01/24 06:16:12;;;;;;;14.93;9.27;;;-0.70;98.70;;;;;;5053512;28;20021;-81
2023/01/24 06:18:38;;;;;;;13.88;7.97;;;-0.70;98.70;;;;;;5052818;28;20544;-80
2023/01/24 06:21:16;;;;;;;19.83;9.18;;;-0.70;98.70;;;;;;5053085;28;20074;-81
2023/01/24 06:23:42;;;;;;;;;;;-0.70;98.70;;;;;;5053699;28;20357;-80
2023/01/24 06:26:11;;;;;;;16.13;9.35;;;-0.60;98.70;;;;;;5053746;28;19958;-80
2023/01/24 06:28:38;;;;;;;13.77;7.88;;;-0.70;98.50;;;;;;5053383;28;20033;-79
2023/01/24 06:31:14;;;;;;;12.32;8.13;;;-0.70;98.50;;;;;;5053472;28;20100;-81
2023/01/24 06:33:57;;;;;;;14.82;8.52;;;-0.60;98.50;;;;;;5053672;28;20082;-80
2023/01/24 06:37:12;;;;;;;18.15;8.35;;;-0.70;98.50;;;;;;5053399;28;20055;-82
2023/01/24 06:39:39;;;;;;;18.50;9.02;;;-0.70;98.50;;;;;;5017304;28;20084;-81
2023/01/24 06:42:05;;;;;;;;;;;-0.70;98.50;;;;;;5049981;28;20039;-80
2023/01/24 06:44:31;;;;;;;18.63;8.75;;;-0.70;98.50;;;;;;5053536;28;19905;-79
2023/01/24 06:46:57;;;;;;;14.02;8.70;;;-0.70;98.50;;;;;;5053184;28;20337;-79
2023/01/24 06:49:23;;;;;;;17.77;11.07;;;-0.60;98.60;;;;;;5035231;28;20033;-79
2023/01/24 06:51:51;;;;;;;14.20;9.05;;;-0.50;98.60;;;;;;5053425;28;20634;-78
2023/01/24 06:54:17;;;;;;;15.00;9.10;;;-0.50;98.60;;;;;;5060419;28;20029;-80
2023/01/24 06:56:43;;;;;;;15.73;8.98;;;-0.40;98.60;;;;;;5071159;28;20492;-77
2023/01/24 06:59:09;;;;;;;18.00;8.80;;;-0.30;98.50;;;;;;5068855;28;20150;-80
2023/01/24 07:01:34;;;;;;;14.10;9.00;;;-0.20;98.40;;;;;;5062883;28;20025;-78
2023/01/24 07:04:00;;;;;;;19.20;9.85;;;-0.10;98.20;;;;;;5071592;28;20043;-78
2023/01/24 07:06:26;;;;;;;16.15;10.32;;;0.10;98.20;;;;;;5069147;28;20024;-78
2023/01/24 07:08:52;;;;;;;27.65;9.40;;;0.20;97.90;;;;;;5057441;28;20059;-80
2023/01/24 07:11:18;;;;;;;15.07;9.10;;;0.30;97.80;;;;;;5057590;28;20045;-80
2023/01/24 07:13:44;;;;;;;19.95;10.68;;;0.30;97.50;;;;;;5054795;28;20025;-79
2023/01/24 07:16:10;;;;;;;13.85;8.55;;;0.30;97.30;;;;;;5067780;28;20377;-79
2023/01/24 07:18:36;;;;;;;19.58;9.88;;;0.40;97.20;;;;;;5050324;28;20036;-80
2023/01/24 07:21:07;;;;;;;17.38;9.43;;;0.50;97.00;;;;;;5045470;28;20028;-80
2023/01/24 07:23:34;;;;;;;29.02;11.07;;;0.60;97.10;;;;;;5039002;28;20025;-80
2023/01/24 07:26:02;;;;;;;18.23;9.80;;;0.70;96.90;;;;;;5052992;28;20033;-80
2023/01/24 07:28:28;;;;;;;21.88;11.43;;;0.70;96.80;;;;;;5052319;28;20391;-78
2023/01/24 07:30:54;;;;;;;15.00;9.43;;;0.70;96.60;;;;;;5051965;28;20092;-79
2023/01/24 07:33:20;;;;;;;16.02;8.50;;;0.80;96.40;;;;;;5051402;28;20033;-80
2023/01/24 07:35:46;;;;;;;16.58;9.32;;;0.70;96.20;;;;;;5051787;28;20434;-79
2023/01/24 07:38:12;;;;;;;16.90;10.55;;;0.60;96.20;;;;;;5051476;28;20100;-78
2023/01/24 07:40:38;;;;;;;17.23;8.80;;;0.60;96.20;;;;;;5051647;28;20048;-79
2023/01/24 07:43:05;;;;;;;12.75;9.73;;;0.50;96.20;;;;;;5046577;28;20037;-79
2023/01/24 07:45:31;;;;;;;14.27;9.80;;;0.40;96.20;;;;;;5036203;28;20025;-79
2023/01/24 07:47:58;;;;;;;15.57;8.75;;;0.30;96.30;;;;;;5049287;28;20028;-78
2023/01/24 07:50:25;;;;;;;14.00;8.15;;;0.30;96.40;;;;;;5042805;28;20647;-78
2023/01/24 07:52:54;;;;;;;17.35;9.98;;;0.20;96.40;;;;;;5051568;28;20017;-78
2023/01/24 07:55:21;;;;;;;16.10;9.68;;;0.20;96.50;;;;;;5051752;28;20035;-80
2023/01/24 07:57:47;;;;;;;17.45;9.98;;;0.10;96.60;;;;;;5050926;28;20427;-81
2023/01/24 08:00:14;;;;;;;17.00;10.10;;;0.10;96.70;;;;;;5049410;28;20041;-81
2023/01/24 08:02:41;;;;;;;20.50;9.77;;;0.20;96.80;;;;;;5036852;28;20028;-81
2023/01/24 08:05:07;;;;;;;27.67;10.25;;;0.20;96.80;;;;;;5048661;28;20289;-81
2023/01/24 08:07:33;;;;;;;16.38;8.60;;;0.20;96.70;;;;;;5051416;28;20024;-80
2023/01/24 08:09:59;;;;;;;24.52;11.25;;;0.20;96.70;;;;;;5050852;28;20488;-79
2023/01/24 08:12:25;;;;;;;14.40;9.13;;;0.20;96.70;;;;;;5051688;28;20025;-81
2023/01/24 08:14:51;;;;;;;19.13;9.27;;;0.20;96.80;;;;;;5049948;28;20032;-80
2023/01/24 08:17:17;;;;;;;18.95;10.55;;;0.20;96.70;;;;;;5051436;28;20060;-80
2023/01/24 08:19:43;;;;;;;16.77;10.27;;;0.30;96.80;;;;;;5051545;28;20481;-80
2023/01/24 08:22:09;;;;;;;21.95;10.38;;;0.40;96.80;;;;;;5051582;28;20126;-79
2023/01/24 08:24:34;;;;;;;15.13;8.88;;;0.50;96.70;;;;;;5033010;28;20391;-79
2023/01/24 08:27:02;;;;;;;14.95;9.07;;;0.40;96.60;;;;;;5032989;28;20032;-78
2023/01/24 08:29:28;;;;;;;18.00;8.68;;;0.40;96.60;;;;;;5051311;28;20033;-78
2023/01/24 08:31:54;;;;;;;15.90;10.25;;;0.40;96.50;;;;;;5050872;28;20114;-78
2023/01/24 08:34:20;;;;;;;12.88;8.60;;;0.40;96.60;;;;;;5051068;28;20037;-77
2023/01/24 08:36:46;;;;;;;17.45;10.07;;;0.40;96.50;;;;;;5050626;28;20480;-79
2023/01/24 08:39:11;;;;;;;15.23;10.55;;;0.50;96.40;;;;;;5033047;28;20036;-79
2023/01/24 08:41:38;;;;;;;16.23;9.27;;;0.50;96.40;;;;;;5051055;28;20024;-78
2023/01/24 08:44:04;;;;;;;16.45;8.88;;;0.40;96.40;;;;;;5053217;28;20021;-78
2023/01/24 08:46:31;;;;;;;15.75;8.80;;;0.40;96.50;;;;;;5036957;28;20045;-79
2023/01/24 08:48:57;;;;;;;14.88;9.68;;;0.40;96.50;;;;;;5054462;28;20037;-78
2023/01/24 08:51:24;;;;;;;20.67;10.32;;;0.50;96.50;;;;;;5054372;28;20017;-81
2023/01/24 08:53:49;;;;;;;16.20;9.13;;;0.50;96.50;;;;;;5054871;28;20029;-80
2023/01/24 08:56:15;;;;;;;22.08;10.35;;;0.50;96.40;;;;;;5041458;28;20024;-80
2023/01/24 08:58:41;;;;;;;20.70;8.93;;;0.60;96.50;;;;;;5054680;28;20495;-80
2023/01/24 09:01:10;;;;;;;20.83;8.65;;;0.70;96.40;;;;;;5054685;28;20028;-81
2023/01/24 09:03:37;;;;;;;16.95;8.82;;;0.80;96.40;;;;;;5054860;28;20079;-81
2023/01/24 09:06:04;;;;;;;14.93;8.77;;;0.90;96.20;;;;;;5055021;28;20021;-80
2023/01/24 09:08:30;;;;;;;15.35;8.45;;;1.00;96.00;;;;;;5054449;28;20032;-85
2023/01/24 09:11:00;;;;;;;13.00;8.20;;;1.00;95.80;;;;;;5044299;28;20021;-84
2023/01/24 09:13:27;;;;;;;15.55;8.82;;;1.00;95.60;;;;;;5044085;28;20021;-83
2023/01/24 09:15:53;;;;;;;17.48;9.63;;;1.00;95.50;;;;;;5054296;28;20036;-78
2023/01/24 09:18:19;;;;;;;14.30;8.32;;;1.00;95.50;;;;;;5054157;28;20025;-77
2023/01/24 09:20:45;;;;;;;19.55;9.35;;;1.10;95.50;;;;;;5054149;28;20028;-78
2023/01/24 09:23:14;;;;;;;20.67;9.55;;;1.20;95.40;;;;;;5053809;28;20085;-77
2023/01/24 09:25:41;;;;;;;15.43;10.73;;;1.20;95.20;;;;;;5054050;28;20025;-78
2023/01/24 09:28:07;;;;;;;14.85;9.93;;;1.20;95.20;;;;;;5054120;28;20108;-77
2023/01/24 09:30:34;;;;;;;10.75;7.28;;;1.20;95.10;;;;;;5053965;28;20045;-77
2023/01/24 09:33:06;;;;;;;12.80;9.05;;;1.10;94.90;;;;;;5053891;28;20036;-76
2023/01/24 09:35:32;;;;;;;16.58;9.48;;;1.00;94.90;;;;;;5053733;28;20025;-76
2023/01/24 09:37:57;;;;;;;15.93;9.27;;;1.00;95.10;;;;;;5054108;28;20021;-78
2023/01/24 09:40:34;;;;;;;15.55;9.85;;;1.00;95.10;;;;;;5053972;28;20094;-82
2023/01/24 09:43:12;;;;;;;18.23;8.63;;;1.00;95.10;;;;;;5054017;28;20354;-82
2023/01/24 09:45:49;;;;;;;14.35;8.95;;;1.10;95.00;;;;;;5053619;28;20565;-84
2023/01/24 09:48:16;;;;;;;17.63;10.40;;;1.00;95.00;;;;;;5036431;28;20116;-80
2023/01/24 09:51:03;;;;;;;16.80;10.10;;;1.00;95.00;;;;;;5035917;28;20021;-81
2023/01/24 09:53:53;;;;;;;16.45;9.27;;;1.00;95.00;;;;;;5053605;28;20024;-80
2023/01/24 09:56:46;;;;;;;13.65;9.27;;;1.00;95.00;;;;;;5053050;28;20519;-83
2023/01/24 09:59:22;;;;;;;12.10;8.35;;;1.00;95.00;;;;;;5051167;28;20120;-81
2023/01/24 10:01:50;;;;;;;14.15;8.70;;;1.00;95.10;;;;;;5040555;28;20088;-79
2023/01/24 10:04:20;;;;;;;11.57;8.00;;;1.00;95.00;;;;;;5053420;28;20495;-78
2023/01/24 10:07:04;;;;;;;17.80;8.70;;;1.10;95.10;;;;;;5053467;28;20033;-78
2023/01/24 10:09:50;;;;;;;18.33;9.35;;;1.10;94.90;;;;;;5053205;28;20041;-79
2023/01/24 10:12:19;;;;;;;15.52;9.75;;;1.20;94.90;;;;;;5053124;28;20021;-79
2023/01/24 10:14:57;;;;;;;16.13;10.13;;;1.20;94.90;;;;;;5053416;28;20132;-78
2023/01/24 10:18:10;;;;;;;16.65;9.27;;;1.20;94.70;;;;;;5053517;28;20510;-78
2023/01/24 10:20:52;;;;;;;18.85;8.07;;;1.20;94.70;;;;;;5014550;28;20048;-83
2023/01/24 10:23:29;;;;;;;15.45;9.73;;;1.10;94.70;;;;;;5052191;28;20503;-80
2023/01/24 10:26:24;;;;;;;14.90;10.27;;;1.10;94.70;;;;;;5053845;28;20511;-82
2023/01/24 10:28:52;;;;;;;18.30;9.95;;;1.10;94.70;;;;;;5051560;28;20044;-81
2023/01/24 10:31:37;;;;;;;14.80;8.63;;;1.10;94.70;;;;;;5034685;28;20025;-81
2023/01/24 10:34:36;;;;;;;15.98;9.15;;;1.10;94.70;;;;;;5033822;28;20480;-81
2023/01/24 10:37:09;;;;;;;17.83;9.25;;;1.10;94.70;;;;;;5053319;28;20412;-83
2023/01/24 10:39:36;;;;;;;13.63;8.07;;;1.10;94.70;;;;;;5053239;28;20388;-80
2023/01/24 10:42:21;;;;;;;15.23;9.27;;;1.10;94.80;;;;;;5053149;28;20032;-82
2023/01/24 10:44:48;;;;;;;22.48;9.10;;;1.20;94.80;;;;;;5052636;28;20025;-80
2023/01/24 10:47:36;;;;;;;13.45;7.85;;;1.20;94.70;;;;;;5053125;28;20033;-80
2023/01/24 10:50:06;;;;;;;18.17;8.82;;;1.20;94.60;;;;;;5048881;28;20396;-81
2023/01/24 10:52:33;;;;;;;15.75;9.80;;;1.30;94.60;;;;;;5052376;28;20024;-83
2023/01/24 10:55:01;;;;;;;13.85;7.70;;;1.30;94.40;;;;;;5039084;28;20021;-81
2023/01/24 10:57:53;;;;;;;16.30;8.85;;;1.40;94.30;;;;;;5035073;28;20025;-82
2023/01/24 11:00:27;;;;;;;14.57;9.50;;;1.30;94.20;;;;;;5041161;28;20393;-81
2023/01/24 11:02:59;;;;;;;17.02;9.40;;;1.30;94.30;;;;;;5052966;28;20506;-80
2023/01/24 11:05:34;;;;;;;12.63;7.93;;;1.40;94.30;;;;;;5052557;28;20033;-80
2023/01/24 11:08:01;;;;;;;12.57;7.90;;;1.40;94.20;;;;;;5051021;28;20055;-80
2023/01/24 11:10:34;;;;;;;12.20;7.35;;;1.50;94.10;;;;;;5049772;28;20037;-80
2023/01/24 11:13:04;;;;;;;15.32;8.45;;;1.50;94.00;;;;;;5052292;28;20074;-81
2023/01/24 11:15:35;;;;;;;19.25;10.60;;;1.50;93.90;;;;;;5051584;28;20078;-81
2023/01/24 11:18:19;;;;;;;14.90;8.07;;;1.50;94.10;;;;;;5052129;28;20013;-82
2023/01/24 11:20:45;;;;;;;11.73;8.68;;;1.50;94.00;;;;;;5051890;28;20024;-78
2023/01/24 11:23:15;;;;;;;14.50;8.85;;;1.60;93.90;;;;;;5033979;28;20099;-80
2023/01/24 11:25:56;;;;;;;9.00;6.57;;;1.60;93.90;;;;;;5051944;28;20052;-84
2023/01/24 11:28:35;;;;;;;15.23;8.00;;;1.60;93.80;;;;;;5052259;28;20029;-81
2023/01/24 11:31:30;;;;;;;11.85;7.07;;;1.60;93.70;;;;;;5052411;28;20075;-82
2023/01/24 11:34:05;;;;;;;12.02;7.18;;;1.50;93.70;;;;;;5051749;28;20021;-83
2023/01/24 11:36:51;;;;;;;10.60;7.13;;;1.50;93.70;;;;;;5052047;28;20025;-83
2023/01/24 11:39:29;;;;;;;14.63;8.13;;;1.40;93.70;;;;;;5039947;28;20025;-82
2023/01/24 11:42:18;;;;;;;13.98;8.38;;;1.40;93.80;;;;;;5052276;28;20039;-82
2023/01/24 11:45:02;;;;;;;12.00;7.78;;;1.40;93.90;;;;;;5042565;28;20407;-83
2023/01/24 11:47:59;;;;;;;10.73;7.63;;;1.40;93.90;;;;;;5052049;28;20021;-80
2023/01/24 11:50:39;;;;;;;;;;;1.50;93.80;;;;;;5041621;28;20041;-80
2023/01/24 11:53:08;;;;;;;11.55;6.97;;;1.50;93.90;;;;;;5040635;28;20316;-81
2023/01/24 11:56:06;;;;;;;12.57;7.07;;;1.50;93.70;;;;;;5051942;28;20029;-80
2023/01/24 11:58:53;;;;;;;13.93;9.32;;;1.50;93.70;;;;;;5013416;28;20040;-80
2023/01/24 12:01:45;;;;;;;13.25;7.85;;;1.50;93.90;;;;;;5043601;28;20026;-81
2023/01/24 12:04:49;;;;;;;24.52;12.80;;;1.60;93.90;;;;;;5044079;28;20029;-82
2023/01/24 12:07:39;;;;;;;11.88;7.25;;;1.60;93.90;;;;;;5049022;28;20020;-82
2023/01/24 12:10:42;;;;;;;12.45;7.30;;;1.60;93.80;;;;;;5028342;28;20037;-80
2023/01/24 12:13:36;;;;;;;11.63;7.88;;;1.60;93.70;;;;;;5030308;28;20556;-83
2023/01/24 12:16:23;;;;;;;10.65;6.47;;;1.50;93.70;;;;;;5034018;28;20071;-82
2023/01/24 12:19:11;;;;;;;14.00;7.35;;;1.50;93.70;;;;;;5048038;28;20107;-82
2023/01/24 12:21:36;;;;;;;14.98;9.10;;;1.50;93.70;;;;;;5055333;28;20076;-81
2023/01/24 12:24:35;;;;;;;14.70;9.23;;;1.50;93.90;;;;;;5055672;28;20021;-81
2023/01/24 12:27:12;;;;;;;11.30;7.50;;;1.60;94.00;;;;;;5037665;28;20029;-81
2023/01/24 12:29:56;;;;;;;12.95;7.70;;;1.60;93.90;;;;;;5055772;28;20029;-83
2023/01/24 12:32:52;;;;;;;13.00;7.60;;;1.60;93.90;;;;;;5048784;28;20057;-78
2023/01/24 12:35:38;;;;;;;11.75;7.38;;;1.50;93.80;;;;;;5051654;28;20377;-79
2023/01/24 12:38:30;;;;;;;15.07;7.65;;;1.50;93.70;;;;;;5055108;28;20037;-78
2023/01/24 12:41:34;;;;;;;9.02;6.63;;;1.50;93.70;;;;;;5052181;28;20087;-78
2023/01/24 12:44:28;;;;;;;10.57;6.53;;;1.40;93.90;;;;;;5055101;28;20032;-79
2023/01/24 12:47:15;;;;;;;11.82;6.63;;;1.50;93.90;;;;;;5054769;28;20044;-79
2023/01/24 12:50:14;;;;;;;11.43;7.10;;;1.50;93.80;;;;;;5054805;28;20036;-80
2023/01/24 12:52:49;;;;;;;11.48;7.05;;;1.40;93.80;;;;;;5054644;28;20025;-79
2023/01/24 12:55:18;;;;;;;13.57;8.57;;;1.40;93.90;;;;;;5055011;28;20067;-81
2023/01/24 12:58:12;;;;;;;16.33;7.35;;;1.40;94.00;;;;;;5055227;28;20082;-82
2023/01/24 13:01:10;;;;;;;9.45;6.15;;;1.40;94.10;;;;;;5054858;28;20465;-83
2023/01/24 13:03:57;;;;;;;9.00;6.53;;;1.40;94.00;;;;;;5020905;28;20063;-82
2023/01/24 13:06:51;;;;;;;10.82;6.93;;;1.30;94.00;;;;;;5036901;28;20525;-83
2023/01/24 13:09:25;;;;;;;11.65;6.38;;;1.30;94.10;;;;;;5051892;28;20380;-83
2023/01/24 13:11:54;;;;;;;10.80;6.18;;;1.20;94.20;;;;;;5037609;28;20338;-84
2023/01/24 13:14:29;;;;;;;10.70;6.57;;;1.30;94.20;;;;;;5054666;28;20029;-78
2023/01/24 13:17:10;;;;;;;10.15;7.18;;;1.30;94.30;;;;;;5054496;28;20025;-82
2023/01/24 13:19:41;;;;;;;11.48;6.90;;;1.30;94.40;;;;;;5054241;28;20021;-83
2023/01/24 13:22:30;;;;;;;14.45;6.55;;;1.30;94.40;;;;;;5054864;28;20025;-81
2023/01/24 13:25:20;;;;;;;10.45;5.95;;;1.30;94.40;;;;;;5054119;28;20411;-79
2023/01/24 13:28:24;;;;;;;10.52;6.30;;;1.30;94.40;;;;;;5044612;28;20027;-80
2023/01/24 13:31:24;;;;;;;9.52;6.03;;;1.30;94.40;;;;;;5040878;28;20104;-80
2023/01/24 13:33:58;;;;;;;8.25;5.82;;;1.20;94.40;;;;;;5035806;28;20105;-81
2023/01/24 13:36:34;;;;;;;11.20;6.63;;;1.20;94.50;;;;;;5054428;28;20025;-83
2023/01/24 13:39:00;;;;;;;10.43;7.13;;;1.20;94.60;;;;;;5036185;28;20031;-85